KOBE/OBE METAR and TAF weather

Enter ICAO airport designator
Station Type Date Time Source
KOBE METAR 2020/02/26 10:15 UTC NOAA

KOBE 261015Z AUTO 00000KT 10SM BKN014 OVC095 18/17 A2995 RMK AO2


Station Type Date Time Source
KOBE Decoded METAR 2020/02/26 10:15 UTC NOAA

Okeechobee County Airport, FL, United States (KOBE) 27-15-60N 080-51-02W
Feb 26, 2020 - 05:15 AM EST / 2020.02.26 1015 UTC
Wind: Calm:0
Visibility: 10 mile(s):0
Sky conditions: overcast
Temperature: 64 F (18 C)
Dew Point: 62 F (17 C)
Relative Humidity: 93%
Pressure (altimeter): 29.95 in. Hg (1014 hPa)
ob: KOBE 261015Z AUTO 00000KT 10SM BKN014 OVC095 18/17 A2995 RMK AO2
cycle: 10

Station Type Date Time Source
KOBE TAF UTC NOAA

Error!

Example: see airport list